sensor_id;sensor_type;location;lat;lon;timestamp;pressure;altitude;pressure_sealevel;temperature;humidity
4449;BME280;2237;51.870;6.160;2024-01-30T00:00:24;102508.84;;;10.95;100.00
4449;BME280;2237;51.870;6.160;2024-01-30T00:02:51;102503.63;;;10.89;100.00
4449;BME280;2237;51.870;6.160;2024-01-30T00:05:17;102510.56;;;10.87;100.00
4449;BME280;2237;51.870;6.160;2024-01-30T00:07:44;102504.47;;;10.83;100.00
4449;BME280;2237;51.870;6.160;2024-01-30T00:10:10;102507.09;;;10.82;100.00
4449;BME280;2237;51.870;6.160;2024-01-30T00:12:37;102502.72;;;10.81;100.00
4449;BME280;2237;51.870;6.160;2024-01-30T00:15:03;102500.13;;;10.77;100.00
4449;BME280;2237;51.870;6.160;2024-01-30T00:17:31;102502.72;;;10.73;100.00
4449;BME280;2237;51.870;6.160;2024-01-30T00:19:57;102505.31;;;10.74;100.00
4449;BME280;2237;51.870;6.160;2024-01-30T00:22:24;102503.59;;;10.73;100.00
4449;BME280;2237;51.870;6.160;2024-01-30T00:24:50;102500.94;;;10.69;100.00
4449;BME280;2237;51.870;6.160;2024-01-30T00:27:17;102504.44;;;10.71;100.00
4449;BME280;2237;51.870;6.160;2024-01-30T00:29:43;102494.00;;;10.65;100.00
4449;BME280;2237;51.870;6.160;2024-01-30T00:32:10;102507.88;;;10.62;100.00
4449;BME280;2237;51.870;6.160;2024-01-30T00:34:39;102507.88;;;10.62;100.00
4449;BME280;2237;51.870;6.160;2024-01-30T00:37:05;102501.81;;;10.63;100.00
4449;BME280;2237;51.870;6.160;2024-01-30T00:39:32;102495.69;;;10.60;100.00
4449;BME280;2237;51.870;6.160;2024-01-30T00:41:58;102493.09;;;10.58;100.00
4449;BME280;2237;51.870;6.160;2024-01-30T00:44:25;102500.03;;;10.59;100.00
4449;BME280;2237;51.870;6.160;2024-01-30T00:46:51;102501.81;;;10.59;100.00
4449;BME280;2237;51.870;6.160;2024-01-30T00:49:17;102497.44;;;10.56;100.00
4449;BME280;2237;51.870;6.160;2024-01-30T00:51:44;102493.97;;;10.56;100.00
4449;BME280;2237;51.870;6.160;2024-01-30T00:54:10;102488.75;;;10.56;100.00
4449;BME280;2237;51.870;6.160;2024-01-30T00:56:37;102491.34;;;10.54;100.00
4449;BME280;2237;51.870;6.160;2024-01-30T00:59:03;102487.00;;;10.52;100.00
4449;BME280;2237;51.870;6.160;2024-01-30T01:01:30;102487.84;;;10.49;100.00
4449;BME280;2237;51.870;6.160;2024-01-30T01:03:56;102485.25;;;10.52;100.00
4449;BME280;2237;51.870;6.160;2024-01-30T01:06:24;102485.25;;;10.49;100.00
4449;BME280;2237;51.870;6.160;2024-01-30T01:08:51;102487.84;;;10.46;100.00
4449;BME280;2237;51.870;6.160;2024-01-30T01:11:17;102485.22;;;10.43;100.00
4449;BME280;2237;51.870;6.160;2024-01-30T01:13:43;102488.72;;;10.47;100.00
4449;BME280;2237;51.870;6.160;2024-01-30T01:16:10;102486.97;;;10.47;100.00
4449;BME280;2237;51.870;6.160;2024-01-30T01:18:36;102489.59;;;10.47;100.00
4449;BME280;2237;51.870;6.160;2024-01-30T01:21:03;102482.63;;;10.46;100.00
4449;BME280;2237;51.870;6.160;2024-01-30T01:23:29;102488.72;;;10.47;100.00
4449;BME280;2237;51.870;6.160;2024-01-30T01:25:56;102496.53;;;10.51;100.00
4449;BME280;2237;51.870;6.160;2024-01-30T01:28:26;102487.88;;;10.52;100.00
4449;BME280;2237;51.870;6.160;2024-01-30T01:30:53;102480.06;;;10.55;100.00
4449;BME280;2237;51.870;6.160;2024-01-30T01:33:19;102474.84;;;10.54;100.00
4449;BME280;2237;51.870;6.160;2024-01-30T01:35:46;102477.47;;;10.55;100.00
4449;BME280;2237;51.870;6.160;2024-01-30T01:38:12;102473.97;;;10.55;100.00
4449;BME280;2237;51.870;6.160;2024-01-30T01:40:39;102473.09;;;10.54;100.00
4449;BME280;2237;51.870;6.160;2024-01-30T01:43:06;102473.97;;;10.55;100.00
4449;BME280;2237;51.870;6.160;2024-01-30T01:45:32;102471.38;;;10.55;100.00
4449;BME280;2237;51.870;6.160;2024-01-30T01:47:58;102473.13;;;10.53;100.00
4449;BME280;2237;51.870;6.160;2024-01-30T01:50:25;102475.72;;;10.57;100.00
4449;BME280;2237;51.870;6.160;2024-01-30T01:52:53;102474.00;;;10.56;100.00
4449;BME280;2237;51.870;6.160;2024-01-30T01:55:21;102473.97;;;10.55;100.00
4449;BME280;2237;51.870;6.160;2024-01-30T01:57:48;102474.84;;;10.57;100.00
4449;BME280;2237;51.870;6.160;2024-01-30T02:00:15;102475.72;;;10.56;100.00
4449;BME280;2237;51.870;6.160;2024-01-30T02:02:43;102473.13;;;10.53;100.00
4449;BME280;2237;51.870;6.160;2024-01-30T02:05:11;102467.91;;;10.56;100.00
4449;BME280;2237;51.870;6.160;2024-01-30T02:07:38;102460.97;;;10.56;100.00
4449;BME280;2237;51.870;6.160;2024-01-30T02:10:05;102461.84;;;10.55;100.00
4449;BME280;2237;51.870;6.160;2024-01-30T02:12:32;102448.78;;;10.49;100.00
4449;BME280;2237;51.870;6.160;2024-01-30T02:14:58;102456.63;;;10.55;100.00
4449;BME280;2237;51.870;6.160;2024-01-30T02:17:24;102459.25;;;10.58;100.00
4449;BME280;2237;51.870;6.160;2024-01-30T02:19:51;102456.63;;;10.58;100.00
4449;BME280;2237;51.870;6.160;2024-01-30T02:22:19;102455.78;;;10.61;100.00
4449;BME280;2237;51.870;6.160;2024-01-30T02:24:46;102463.59;;;10.56;100.00
4449;BME280;2237;51.870;6.160;2024-01-30T02:27:12;102456.63;;;10.58;100.00
4449;BME280;2237;51.870;6.160;2024-01-30T02:29:39;102453.16;;;10.61;100.00
4449;BME280;2237;51.870;6.160;2024-01-30T02:32:06;102447.09;;;10.62;100.00
4449;BME280;2237;51.870;6.160;2024-01-30T02:34:32;102447.06;;;10.57;100.00
4449;BME280;2237;51.870;6.160;2024-01-30T02:36:59;102447.94;;;10.58;100.00
4449;BME280;2237;51.870;6.160;2024-01-30T02:39:25;102450.56;;;10.61;100.00
4449;BME280;2237;51.870;6.160;2024-01-30T02:41:52;102443.59;;;10.55;100.00
4449;BME280;2237;51.870;6.160;2024-01-30T02:44:18;102441.84;;;10.54;100.00
4449;BME280;2237;51.870;6.160;2024-01-30T02:46:45;102438.38;;;10.52;100.00
4449;BME280;2237;51.870;6.160;2024-01-30T02:49:11;102446.19;;;10.52;100.00
4449;BME280;2237;51.870;6.160;2024-01-30T02:51:38;102441.81;;;10.48;100.00
4449;BME280;2237;51.870;6.160;2024-01-30T02:54:04;102444.41;;;10.45;100.00
4449;BME280;2237;51.870;6.160;2024-01-30T02:56:30;102434.00;;;10.44;100.00
4449;BME280;2237;51.870;6.160;2024-01-30T02:58:57;102427.91;;;10.43;100.00
4449;BME280;2237;51.870;6.160;2024-01-30T03:01:23;102411.41;;;10.40;100.00
4449;BME280;2237;51.870;6.160;2024-01-30T03:03:50;102409.63;;;10.31;100.00
4449;BME280;2237;51.870;6.160;2024-01-30T03:06:17;102411.38;;;10.29;100.00
4449;BME280;2237;51.870;6.160;2024-01-30T03:08:46;102410.50;;;10.24;100.00
4449;BME280;2237;51.870;6.160;2024-01-30T03:11:12;102405.28;;;10.26;100.00
4449;BME280;2237;51.870;6.160;2024-01-30T03:13:39;102407.00;;;10.20;100.00
4449;BME280;2237;51.870;6.160;2024-01-30T03:16:06;102407.88;;;10.21;100.00
4449;BME280;2237;51.870;6.160;2024-01-30T03:18:34;102411.31;;;10.20;100.00
4449;BME280;2237;51.870;6.160;2024-01-30T03:21:00;102413.94;;;10.18;100.00
4449;BME280;2237;51.870;6.160;2024-01-30T03:23:27;102405.22;;;10.16;100.00
4449;BME280;2237;51.870;6.160;2024-01-30T03:25:53;102413.09;;;10.24;100.00
4449;BME280;2237;51.870;6.160;2024-01-30T03:28:20;102407.00;;;10.22;100.00
4449;BME280;2237;51.870;6.160;2024-01-30T03:30:46;102400.03;;;10.19;100.00
4449;BME280;2237;51.870;6.160;2024-01-30T03:33:13;102407.91;;;10.27;100.00
4449;BME280;2237;51.870;6.160;2024-01-30T03:35:39;102407.91;;;10.27;100.00
4449;BME280;2237;51.870;6.160;2024-01-30T03:38:05;102401.78;;;10.22;100.00
4449;BME280;2237;51.870;6.160;2024-01-30T03:40:32;102398.31;;;10.18;100.00
4449;BME280;2237;51.870;6.160;2024-01-30T03:42:59;102404.38;;;10.22;100.00
4449;BME280;2237;51.870;6.160;2024-01-30T03:45:25;102402.66;;;10.21;100.00
4449;BME280;2237;51.870;6.160;2024-01-30T03:47:52;102399.19;;;10.25;100.00
4449;BME280;2237;51.870;6.160;2024-01-30T03:50:18;102397.47;;;10.29;100.00
4449;BME280;2237;51.870;6.160;2024-01-30T03:52:45;102384.47;;;10.27;100.00
4449;BME280;2237;51.870;6.160;2024-01-30T03:55:11;102389.66;;;10.24;100.00
4449;BME280;2237;51.870;6.160;2024-01-30T03:57:38;102385.34;;;10.29;100.00
4449;BME280;2237;51.870;6.160;2024-01-30T04:00:05;102384.47;;;10.27;100.00
4449;BME280;2237;51.870;6.160;2024-01-30T04:02:31;102374.91;;;10.26;100.00
4449;BME280;2237;51.870;6.160;2024-01-30T04:04:58;102375.78;;;10.31;100.00
4449;BME280;2237;51.870;6.160;2024-01-30T04:07:25;102377.50;;;10.28;100.00
4449;BME280;2237;51.870;6.160;2024-01-30T04:09:51;102368.88;;;10.33;100.00
4449;BME280;2237;51.870;6.160;2024-01-30T04:12:18;102371.47;;;10.35;100.00
4449;BME280;2237;51.870;6.160;2024-01-30T04:14:44;102363.63;;;10.36;100.00
4449;BME280;2237;51.870;6.160;2024-01-30T04:17:11;102370.63;;;10.39;100.00
4449;BME280;2237;51.870;6.160;2024-01-30T04:19:37;102369.72;;;10.35;100.00
4449;BME280;2237;51.870;6.160;2024-01-30T04:22:05;102360.19;;;10.33;100.00
4449;BME280;2237;51.870;6.160;2024-01-30T04:24:31;102355.84;;;10.39;100.00
4449;BME280;2237;51.870;6.160;2024-01-30T04:26:58;102365.41;;;10.40;100.00
4449;BME280;2237;51.870;6.160;2024-01-30T04:29:24;102383.63;;;10.37;100.00
4449;BME280;2237;51.870;6.160;2024-01-30T04:31:51;102379.28;;;10.38;100.00
4449;BME280;2237;51.870;6.160;2024-01-30T04:34:17;102382.75;;;10.35;100.00
4449;BME280;2237;51.870;6.160;2024-01-30T04:36:44;102392.31;;;10.38;100.00
4449;BME280;2237;51.870;6.160;2024-01-30T04:39:11;102392.28;;;10.39;100.00
4449;BME280;2237;51.870;6.160;2024-01-30T04:41:39;102391.44;;;10.43;100.00
4449;BME280;2237;51.870;6.160;2024-01-30T04:44:06;102382.75;;;10.40;100.00
4449;BME280;2237;51.870;6.160;2024-01-30T04:46:33;102377.56;;;10.43;100.00
4449;BME280;2237;51.870;6.160;2024-01-30T04:49:00;102384.53;;;10.47;100.00
4449;BME280;2237;51.870;6.160;2024-01-30T04:51:27;102375.84;;;10.46;100.00
4449;BME280;2237;51.870;6.160;2024-01-30T04:53:53;102367.16;;;10.49;100.00
4449;BME280;2237;51.870;6.160;2024-01-30T04:56:20;102368.00;;;10.48;100.00
4449;BME280;2237;51.870;6.160;2024-01-30T04:58:46;102361.97;;;10.47;100.00
4449;BME280;2237;51.870;6.160;2024-01-30T05:01:16;102362.81;;;10.49;100.00
4449;BME280;2237;51.870;6.160;2024-01-30T05:03:43;102363.69;;;10.51;100.00
4449;BME280;2237;51.870;6.160;2024-01-30T05:06:10;102362.81;;;10.48;100.00
4449;BME280;2237;51.870;6.160;2024-01-30T05:08:36;102369.78;;;10.53;100.00
4449;BME280;2237;51.870;6.160;2024-01-30T05:11:05;102363.69;;;10.54;100.00
4449;BME280;2237;51.870;6.160;2024-01-30T05:13:31;102361.09;;;10.57;100.00
4449;BME280;2237;51.870;6.160;2024-01-30T05:15:58;102369.78;;;10.61;100.00
4449;BME280;2237;51.870;6.160;2024-01-30T05:18:24;102368.94;;;10.56;100.00
4449;BME280;2237;51.870;6.160;2024-01-30T05:20:51;102358.50;;;10.60;100.00
4449;BME280;2237;51.870;6.160;2024-01-30T05:23:18;102351.56;;;10.58;100.00
4449;BME280;2237;51.870;6.160;2024-01-30T05:25:44;102356.78;;;10.64;100.00
4449;BME280;2237;51.870;6.160;2024-01-30T05:28:10;102356.78;;;10.67;100.00
4449;BME280;2237;51.870;6.160;2024-01-30T05:30:37;102359.38;;;10.68;100.00
4449;BME280;2237;51.870;6.160;2024-01-30T05:33:03;102353.31;;;10.71;100.00
4449;BME280;2237;51.870;6.160;2024-01-30T05:35:30;102342.03;;;10.70;100.00
4449;BME280;2237;51.870;6.160;2024-01-30T05:37:57;102358.50;;;10.71;100.00
4449;BME280;2237;51.870;6.160;2024-01-30T05:40:24;102360.25;;;10.72;100.00
4449;BME280;2237;51.870;6.160;2024-01-30T05:42:50;102362.00;;;10.67;100.00
4449;BME280;2237;51.870;6.160;2024-01-30T05:45:16;102368.09;;;10.73;100.00
4449;BME280;2237;51.870;6.160;2024-01-30T05:47:43;102361.13;;;10.74;100.00
4449;BME280;2237;51.870;6.160;2024-01-30T05:50:09;102370.72;;;10.76;100.00
4449;BME280;2237;51.870;6.160;2024-01-30T05:52:36;102380.25;;;10.77;100.00
4449;BME280;2237;51.870;6.160;2024-01-30T05:55:02;102375.94;;;10.80;100.00
4449;BME280;2237;51.870;6.160;2024-01-30T05:57:29;102370.69;;;10.86;100.00
4449;BME280;2237;51.870;6.160;2024-01-30T05:59:56;102370.72;;;10.80;100.00
4449;BME280;2237;51.870;6.160;2024-01-30T06:02:22;102371.56;;;10.89;100.00
4449;BME280;2237;51.870;6.160;2024-01-30T06:04:49;102371.59;;;10.91;100.00
4449;BME280;2237;51.870;6.160;2024-01-30T06:07:15;102367.25;;;10.93;100.00
4449;BME280;2237;51.870;6.160;2024-01-30T06:09:43;102357.69;;;10.95;100.00
4449;BME280;2237;51.870;6.160;2024-01-30T06:12:10;102366.38;;;10.94;100.00
4449;BME280;2237;51.870;6.160;2024-01-30T06:14:38;102361.16;;;10.97;100.00
4449;BME280;2237;51.870;6.160;2024-01-30T06:17:05;102363.75;;;10.98;100.00
4449;BME280;2237;51.870;6.160;2024-01-30T06:19:31;102355.97;;;10.97;100.00
4449;BME280;2237;51.870;6.160;2024-01-30T06:21:58;102355.97;;;11.00;100.00
4449;BME280;2237;51.870;6.160;2024-01-30T06:24:24;102355.97;;;11.03;100.00
4449;BME280;2237;51.870;6.160;2024-01-30T06:26:51;102358.56;;;11.04;100.00
4449;BME280;2237;51.870;6.160;2024-01-30T06:29:17;102364.66;;;11.02;100.00
4449;BME280;2237;51.870;6.160;2024-01-30T06:31:45;102363.75;;;11.06;100.00
4449;BME280;2237;51.870;6.160;2024-01-30T06:34:12;102355.94;;;11.06;100.00
4449;BME280;2237;51.870;6.160;2024-01-30T06:36:38;102353.34;;;11.07;100.00
4449;BME280;2237;51.870;6.160;2024-01-30T06:39:06;102360.28;;;11.10;100.00
4449;BME280;2237;51.870;6.160;2024-01-30T06:41:33;102359.41;;;11.09;100.00
4449;BME280;2237;51.870;6.160;2024-01-30T06:44:02;102360.31;;;11.08;100.00
4449;BME280;2237;51.870;6.160;2024-01-30T06:46:30;102353.34;;;11.10;100.00
4449;BME280;2237;51.870;6.160;2024-01-30T06:48:56;102362.03;;;11.12;100.00
4449;BME280;2237;51.870;6.160;2024-01-30T06:51:23;102366.38;;;11.13;100.00
4449;BME280;2237;51.870;6.160;2024-01-30T06:53:49;102360.31;;;11.11;100.00
4449;BME280;2237;51.870;6.160;2024-01-30T06:56:16;102371.59;;;11.07;100.00
4449;BME280;2237;51.870;6.160;2024-01-30T06:58:48;102364.66;;;11.08;100.00
4449;BME280;2237;51.870;6.160;2024-01-30T07:01:14;102364.66;;;11.08;100.00
4449;BME280;2237;51.870;6.160;2024-01-30T07:03:41;102369.88;;;11.11;100.00
4449;BME280;2237;51.870;6.160;2024-01-30T07:06:09;102362.91;;;11.08;100.00
4449;BME280;2237;51.870;6.160;2024-01-30T07:08:37;102380.28;;;11.11;100.00
4449;BME280;2237;51.870;6.160;2024-01-30T07:11:06;102368.13;;;11.13;100.00
4449;BME280;2237;51.870;6.160;2024-01-30T07:13:34;102375.06;;;11.15;100.00
4449;BME280;2237;51.870;6.160;2024-01-30T07:16:01;102384.63;;;11.13;100.00
4449;BME280;2237;51.870;6.160;2024-01-30T07:18:28;102386.38;;;11.11;100.00
4449;BME280;2237;51.870;6.160;2024-01-30T07:20:54;102375.06;;;11.12;100.00
4449;BME280;2237;51.870;6.160;2024-01-30T07:23:21;102394.19;;;11.13;100.00
4449;BME280;2237;51.870;6.160;2024-01-30T07:25:47;102390.72;;;11.12;100.00
4449;BME280;2237;51.870;6.160;2024-01-30T07:28:16;102398.53;;;11.12;100.00
4449;BME280;2237;51.870;6.160;2024-01-30T07:30:43;102397.66;;;11.13;100.00
4449;BME280;2237;51.870;6.160;2024-01-30T07:33:09;102404.63;;;11.16;100.00
4449;BME280;2237;51.870;6.160;2024-01-30T07:35:36;102393.31;;;11.12;100.00
4449;BME280;2237;51.870;6.160;2024-01-30T07:38:03;102405.50;;;11.10;100.00
4449;BME280;2237;51.870;6.160;2024-01-30T07:40:29;102405.47;;;11.12;100.00
4449;BME280;2237;51.870;6.160;2024-01-30T07:42:56;102411.59;;;11.17;100.00
4449;BME280;2237;51.870;6.160;2024-01-30T07:45:22;102412.44;;;11.17;100.00
4449;BME280;2237;51.870;6.160;2024-01-30T07:47:51;102408.97;;;11.21;100.00
4449;BME280;2237;51.870;6.160;2024-01-30T07:50:17;102421.13;;;11.24;100.00
4449;BME280;2237;51.870;6.160;2024-01-30T07:52:45;102415.91;;;11.30;100.00
4449;BME280;2237;51.870;6.160;2024-01-30T07:55:11;102414.19;;;11.27;100.00
4449;BME280;2237;51.870;6.160;2024-01-30T07:57:39;102415.06;;;11.32;100.00
4449;BME280;2237;51.870;6.160;2024-01-30T08:00:06;102419.38;;;11.32;100.00
4449;BME280;2237;51.870;6.160;2024-01-30T08:02:34;102416.78;;;11.35;100.00
4449;BME280;2237;51.870;6.160;2024-01-30T08:05:00;102409.84;;;11.37;100.00
4449;BME280;2237;51.870;6.160;2024-01-30T08:07:27;102416.81;;;11.40;100.00
4449;BME280;2237;51.870;6.160;2024-01-30T08:09:56;102414.19;;;11.47;100.00
4449;BME280;2237;51.870;6.160;2024-01-30T08:12:22;102417.69;;;11.46;100.00
4449;BME280;2237;51.870;6.160;2024-01-30T08:14:48;102423.75;;;11.54;100.00
4449;BME280;2237;51.870;6.160;2024-01-30T08:17:15;102415.94;;;11.51;100.00
4449;BME280;2237;51.870;6.160;2024-01-30T08:19:41;102420.25;;;11.52;100.00
4449;BME280;2237;51.870;6.160;2024-01-30T08:22:08;102425.50;;;11.49;100.00
4449;BME280;2237;51.870;6.160;2024-01-30T08:24:34;102417.63;;;11.55;100.00
4449;BME280;2237;51.870;6.160;2024-01-30T08:27:01;102438.50;;;11.64;100.00
4449;BME280;2237;51.870;6.160;2024-01-30T08:29:28;102427.22;;;11.53;100.00
4449;BME280;2237;51.870;6.160;2024-01-30T08:31:55;102442.00;;;11.59;100.00
4449;BME280;2237;51.870;6.160;2024-01-30T08:34:22;102427.22;;;11.58;100.00
4449;BME280;2237;51.870;6.160;2024-01-30T08:36:48;102431.56;;;11.77;100.00
4449;BME280;2237;51.870;6.160;2024-01-30T08:39:14;102436.81;;;11.77;100.00
4449;BME280;2237;51.870;6.160;2024-01-30T08:41:41;102429.81;;;11.76;100.00
4449;BME280;2237;51.870;6.160;2024-01-30T08:44:07;102436.78;;;11.84;100.00
4449;BME280;2237;51.870;6.160;2024-01-30T08:46:34;102437.66;;;11.89;100.00
4449;BME280;2237;51.870;6.160;2024-01-30T08:49:02;102432.44;;;11.80;100.00
4449;BME280;2237;51.870;6.160;2024-01-30T08:51:29;102441.13;;;11.92;100.00
4449;BME280;2237;51.870;6.160;2024-01-30T08:53:56;102443.75;;;11.84;100.00
4449;BME280;2237;51.870;6.160;2024-01-30T08:56:23;102447.22;;;11.90;100.00
4449;BME280;2237;51.870;6.160;2024-01-30T08:58:49;102440.25;;;11.91;100.00
4449;BME280;2237;51.870;6.160;2024-01-30T09:01:16;102442.00;;;11.95;100.00
4449;BME280;2237;51.870;6.160;2024-01-30T09:03:42;102428.06;;;11.88;100.00
4449;BME280;2237;51.870;6.160;2024-01-30T09:06:12;102441.13;;;11.92;100.00
4449;BME280;2237;51.870;6.160;2024-01-30T09:08:39;102426.28;;;12.12;100.00
4449;BME280;2237;51.870;6.160;2024-01-30T09:11:12;102428.88;;;12.12;100.00
4449;BME280;2237;51.870;6.160;2024-01-30T09:13:40;102431.44;;;12.33;100.00
4449;BME280;2237;51.870;6.160;2024-01-30T09:16:07;102428.78;;;12.39;100.00
4449;BME280;2237;51.870;6.160;2024-01-30T09:18:33;102427.94;;;12.35;100.00
4449;BME280;2237;51.870;6.160;2024-01-30T09:21:00;102413.22;;;12.12;100.00
4449;BME280;2237;51.870;6.160;2024-01-30T09:23:29;102438.41;;;12.22;100.00
4449;BME280;2237;51.870;6.160;2024-01-30T09:25:55;102440.19;;;12.24;100.00
4449;BME280;2237;51.870;6.160;2024-01-30T09:28:22;102431.41;;;12.31;100.00
4449;BME280;2237;51.870;6.160;2024-01-30T09:30:52;102443.59;;;12.35;100.00
4449;BME280;2237;51.870;6.160;2024-01-30T09:33:19;102442.69;;;12.42;100.00
4449;BME280;2237;51.870;6.160;2024-01-30T09:35:46;102437.47;;;12.45;100.00
4449;BME280;2237;51.870;6.160;2024-01-30T09:38:12;102444.47;;;12.42;100.00
4449;BME280;2237;51.870;6.160;2024-01-30T09:40:39;102446.97;;;12.57;100.00
4449;BME280;2237;51.870;6.160;2024-01-30T09:43:05;102447.00;;;12.54;100.00
4449;BME280;2237;51.870;6.160;2024-01-30T09:45:32;102453.13;;;12.53;100.00
4449;BME280;2237;51.870;6.160;2024-01-30T09:48:00;102453.09;;;12.62;100.00
4449;BME280;2237;51.870;6.160;2024-01-30T09:50:26;102453.94;;;12.60;100.00
4449;BME280;2237;51.870;6.160;2024-01-30T09:52:55;102452.19;;;12.60;100.00
4449;BME280;2237;51.870;6.160;2024-01-30T09:55:23;102455.66;;;12.64;100.00
4449;BME280;2237;51.870;6.160;2024-01-30T09:57:50;102447.88;;;12.55;100.00
4449;BME280;2237;51.870;6.160;2024-01-30T10:00:16;102455.69;;;12.62;100.00
4449;BME280;2237;51.870;6.160;2024-01-30T10:02:43;102455.69;;;12.62;100.00
4449;BME280;2237;51.870;6.160;2024-01-30T10:05:15;102450.47;;;12.61;100.00
4449;BME280;2237;51.870;6.160;2024-01-30T10:07:53;102446.91;;;12.72;100.00
4449;BME280;2237;51.870;6.160;2024-01-30T10:10:23;102448.63;;;12.79;100.00
4449;BME280;2237;51.870;6.160;2024-01-30T10:12:50;102456.44;;;12.85;100.00
4449;BME280;2237;51.870;6.160;2024-01-30T10:15:17;102453.00;;;12.74;100.00
4449;BME280;2237;51.870;6.160;2024-01-30T10:17:45;102456.50;;;12.73;100.00
4449;BME280;2237;51.870;6.160;2024-01-30T10:20:12;102459.97;;;12.72;100.00
4449;BME280;2237;51.870;6.160;2024-01-30T10:22:40;102466.94;;;12.78;100.00
4449;BME280;2237;51.870;6.160;2024-01-30T10:25:10;102465.22;;;12.72;100.00
4449;BME280;2237;51.870;6.160;2024-01-30T10:27:39;102463.41;;;12.80;100.00
4449;BME280;2237;51.870;6.160;2024-01-30T10:30:07;102469.50;;;12.87;100.00
4449;BME280;2237;51.870;6.160;2024-01-30T10:32:33;102471.16;;;13.01;100.00
4449;BME280;2237;51.870;6.160;2024-01-30T10:35:00;102479.84;;;13.14;100.00
4449;BME280;2237;51.870;6.160;2024-01-30T10:37:29;102475.50;;;13.09;100.00
4449;BME280;2237;51.870;6.160;2024-01-30T10:40:02;102475.47;;;13.15;100.00
4449;BME280;2237;51.870;6.160;2024-01-30T10:42:32;102479.81;;;13.17;100.00
4449;BME280;2237;51.870;6.160;2024-01-30T10:45:08;102477.19;;;13.17;100.00
4449;BME280;2237;51.870;6.160;2024-01-30T10:47:36;102465.06;;;13.09;100.00
4449;BME280;2237;51.870;6.160;2024-01-30T10:50:05;102478.03;;;13.21;100.00
4449;BME280;2237;51.870;6.160;2024-01-30T10:52:32;102466.66;;;13.25;100.00
4449;BME280;2237;51.870;6.160;2024-01-30T10:54:59;102481.38;;;13.39;100.00
4449;BME280;2237;51.870;6.160;2024-01-30T10:57:26;102474.50;;;13.28;100.00
4449;BME280;2237;51.870;6.160;2024-01-30T10:59:56;102467.63;;;13.15;100.00
4449;BME280;2237;51.870;6.160;2024-01-30T11:02:24;102480.72;;;13.15;100.00
4449;BME280;2237;51.870;6.160;2024-01-30T11:04:56;102485.94;;;13.15;100.00
4449;BME280;2237;51.870;6.160;2024-01-30T11:07:26;102473.69;;;13.18;100.00
4449;BME280;2237;51.870;6.160;2024-01-30T11:10:02;102476.22;;;13.35;100.00
4449;BME280;2237;51.870;6.160;2024-01-30T11:12:31;102477.78;;;13.52;100.00
4449;BME280;2237;51.870;6.160;2024-01-30T11:15:01;102476.78;;;13.69;100.00
4449;BME280;2237;51.870;6.160;2024-01-30T11:17:42;102468.19;;;13.54;100.00
4449;BME280;2237;51.870;6.160;2024-01-30T11:20:16;102473.44;;;13.54;100.00
4449;BME280;2237;51.870;6.160;2024-01-30T11:22:45;102483.72;;;13.74;100.00
4449;BME280;2237;51.870;6.160;2024-01-30T11:25:14;102472.41;;;13.72;100.00
4449;BME280;2237;51.870;6.160;2024-01-30T11:27:44;102468.88;;;13.75;100.00
4449;BME280;2237;51.870;6.160;2024-01-30T11:30:30;102467.97;;;13.80;100.00
4449;BME280;2237;51.870;6.160;2024-01-30T11:35:30;102460.22;;;13.70;100.00
4449;BME280;2237;51.870;6.160;2024-01-30T11:37:58;102475.91;;;13.73;100.00
4449;BME280;2237;51.870;6.160;2024-01-30T11:40:29;102468.09;;;13.67;100.00
4449;BME280;2237;51.870;6.160;2024-01-30T11:42:58;102469.69;;;13.84;100.00
4449;BME280;2237;51.870;6.160;2024-01-30T11:45:26;102466.25;;;13.73;100.00
4449;BME280;2237;51.870;6.160;2024-01-30T11:47:54;102474.00;;;13.85;100.00
4449;BME280;2237;51.870;6.160;2024-01-30T11:50:21;102482.16;;;13.55;100.00
4449;BME280;2237;51.870;6.160;2024-01-30T11:52:48;102467.28;;;13.55;100.00
4449;BME280;2237;51.870;6.160;2024-01-30T11:55:15;102456.84;;;13.54;100.00
4449;BME280;2237;51.870;6.160;2024-01-30T11:57:41;102458.50;;;13.63;100.00
4449;BME280;2237;51.870;6.160;2024-01-30T12:00:15;102471.53;;;13.70;100.00
4449;BME280;2237;51.870;6.160;2024-01-30T12:02:42;102474.06;;;13.81;100.00
4449;BME280;2237;51.870;6.160;2024-01-30T12:05:09;102463.38;;;14.00;100.00
4449;BME280;2237;51.870;6.160;2024-01-30T12:07:36;102462.53;;;13.97;100.00
4449;BME280;2237;51.870;6.160;2024-01-30T12:10:03;102454.59;;;14.07;100.00
4449;BME280;2237;51.870;6.160;2024-01-30T12:12:31;102462.38;;;14.12;100.00
4449;BME280;2237;51.870;6.160;2024-01-30T12:14:58;102472.84;;;14.13;100.00
4449;BME280;2237;51.870;6.160;2024-01-30T12:17:32;102468.44;;;14.17;100.00
4449;BME280;2237;51.870;6.160;2024-01-30T12:22:39;102469.06;;;14.42;100.00
4449;BME280;2237;51.870;6.160;2024-01-30T12:25:27;102465.41;;;14.55;100.00
4449;BME280;2237;51.870;6.160;2024-01-30T12:27:54;102468.66;;;14.72;100.00
4449;BME280;2237;51.870;6.160;2024-01-30T12:30:22;102454.88;;;14.58;100.00
4449;BME280;2237;51.870;6.160;2024-01-30T12:32:50;102467.16;;;14.56;100.00
4449;BME280;2237;51.870;6.160;2024-01-30T12:35:19;102460.09;;;14.61;100.00
4449;BME280;2237;51.870;6.160;2024-01-30T12:37:47;102466.72;;;14.86;100.00
4449;BME280;2237;51.870;6.160;2024-01-30T12:40:14;102464.25;;;14.77;100.00
4449;BME280;2237;51.870;6.160;2024-01-30T12:42:42;102467.63;;;14.85;100.00
4449;BME280;2237;51.870;6.160;2024-01-30T12:45:09;102463.38;;;14.77;100.00
4449;BME280;2237;51.870;6.160;2024-01-30T12:47:36;102466.97;;;14.71;100.00
4449;BME280;2237;51.870;6.160;2024-01-30T12:50:02;102467.63;;;14.85;100.00
4449;BME280;2237;51.870;6.160;2024-01-30T12:52:29;102475.53;;;14.82;100.00
4449;BME280;2237;51.870;6.160;2024-01-30T12:54:56;102477.44;;;14.71;100.00
4449;BME280;2237;51.870;6.160;2024-01-30T12:57:22;102480.47;;;14.38;100.00
4449;BME280;2237;51.870;6.160;2024-01-30T12:59:49;102474.56;;;14.19;100.00
4449;BME280;2237;51.870;6.160;2024-01-30T13:02:16;102478.00;;;14.21;100.00
4449;BME280;2237;51.870;6.160;2024-01-30T13:04:42;102492.16;;;14.06;100.00